Time;durP1;ratioP1;P1;durP2;ratioP2;P2;SDS_P1;SDS_P2;PMS_P1;PMS_P2;Temp;Humidity;BMP_temperature;BMP_pressure;BME280_temperature;BME280_humidity;BME280_pressure;Samples;Min_cycle;Max_cycle;Signal;HPM_P1;HPM_P2
2022/12/21 00:01:53;;;;;;;28.80;10.85;;;;;;;;;;5050542;28;20040;-89
2022/12/21 00:04:20;;;;;;;20.17;10.15;;;;;;;;;;5079756;28;20040;-90
2022/12/21 00:06:48;;;;;;;18.05;8.98;;;;;;;;;;5066709;28;20035;-89
2022/12/21 00:09:40;;;;;;;19.90;8.80;;;;;;;;;;5079017;28;20033;-89
2022/12/21 00:12:12;;;;;;;21.30;8.70;;;;;;;;;;5066457;28;20040;-89
2022/12/21 00:14:40;;;;;;;19.95;9.40;;;;;;;;;;5062493;28;20043;-89
2022/12/21 00:17:08;;;;;;;22.00;10.52;;;;;;;;;;5060638;28;20452;-89
2022/12/21 00:19:36;;;;;;;27.52;10.95;;;;;;;;;;5083745;28;20032;-89
2022/12/21 00:22:04;;;;;;;26.27;10.27;;;;;;;;;;5061186;28;20046;-89
2022/12/21 00:24:32;;;;;;;19.70;8.63;;;;;;;;;;5061741;28;20068;-89
2022/12/21 00:27:00;;;;;;;21.10;9.32;;;;;;;;;;5056631;28;20062;-89
2022/12/21 00:29:28;;;;;;;20.42;8.70;;;;;;;;;;5063031;28;20042;-89
2022/12/21 00:32:00;;;;;;;17.48;8.73;;;;;;;;;;5063077;28;20049;-89
2022/12/21 00:34:28;;;;;;;29.15;8.13;;;;;;;;;;5048422;28;20063;-89
2022/12/21 00:36:57;;;;;;;18.63;8.88;;;;;;;;;;5047163;28;20052;-89
2022/12/21 00:39:30;;;;;;;22.75;9.20;;;;;;;;;;5080826;28;20123;-89
2022/12/21 00:41:58;;;;;;;16.98;8.15;;;;;;;;;;5079630;28;20040;-89
2022/12/21 00:44:26;;;;;;;23.52;8.38;;;;;;;;;;5060140;28;20074;-89
2022/12/21 00:46:54;;;;;;;20.13;8.52;;;;;;;;;;5056929;28;20036;-89
2022/12/21 00:49:46;;;;;;;20.35;8.90;;;;;;;;;;5078081;28;20039;-88
2022/12/21 00:52:18;;;;;;;21.33;8.68;;;;;;;;;;5069700;28;20063;-90
2022/12/21 00:54:50;;;;;;;19.73;8.23;;;;;;;;;;5062681;28;20036;-89
2022/12/21 00:57:18;;;;;;;21.13;7.72;;;;;;;;;;5075110;28;20127;-89
2022/12/21 00:59:46;;;;;;;23.83;7.57;;;;;;;;;;5062528;28;20479;-89
2022/12/21 01:02:14;;;;;;;21.35;9.43;;;;;;;;;;5059821;28;20044;-88
2022/12/21 01:04:42;;;;;;;16.38;7.45;;;;;;;;;;5058990;28;20044;-89
2022/12/21 01:07:15;;;;;;;28.20;8.45;;;;;;;;;;5061480;28;20043;-89
2022/12/21 01:09:42;;;;;;;29.95;8.40;;;;;;;;;;5084518;28;20047;-89
2022/12/21 01:12:10;;;;;;;20.58;8.07;;;;;;;;;;5051302;28;20048;-89
2022/12/21 01:14:38;;;;;;;22.85;8.30;;;;;;;;;;5086521;28;20035;-89
2022/12/21 01:17:07;;;;;;;65.50;8.60;;;;;;;;;;5081957;28;20162;-89
2022/12/21 01:19:40;;;;;;;16.55;7.72;;;;;;;;;;5072332;28;20514;-89
2022/12/21 01:22:11;;;;;;;17.30;7.10;;;;;;;;;;5052437;28;20068;-89
2022/12/21 01:25:02;;;;;;;16.85;6.90;;;;;;;;;;5065795;28;20050;-89
2022/12/21 01:27:34;;;;;;;15.50;6.72;;;;;;;;;;5068879;28;20048;-89
2022/12/21 01:30:02;;;;;;;13.32;5.78;;;;;;;;;;5068091;28;20410;-89
2022/12/21 01:32:55;;;;;;;14.52;6.25;;;;;;;;;;5080537;28;20063;-90
2022/12/21 01:35:30;;;;;;;16.20;6.35;;;;;;;;;;5058215;28;20035;-89
2022/12/21 01:38:02;;;;;;;11.57;5.70;;;;;;;;;;5063700;28;20518;-90
2022/12/21 01:40:33;;;;;;;14.05;5.82;;;;;;;;;;5050979;28;20040;-89
2022/12/21 01:43:38;;;;;;;15.65;6.38;;;;;;;;;;5079184;28;20039;-90
2022/12/21 01:46:17;;;;;;;17.30;6.50;;;;;;;;;;5074082;28;20032;-89
2022/12/21 01:49:07;;;;;;;13.75;5.88;;;;;;;;;;5040863;28;20036;-89
2022/12/21 01:51:38;;;;;;;15.85;6.93;;;;;;;;;;5057825;28;20109;-89
2022/12/21 01:54:37;;;;;;;14.57;5.90;;;;;;;;;;5083850;28;20059;-89
2022/12/21 01:57:07;;;;;;;18.35;6.80;;;;;;;;;;5056326;28;20041;-89
2022/12/21 01:59:38;;;;;;;18.40;7.07;;;;;;;;;;5052950;28;20089;-88
2022/12/21 02:02:17;;;;;;;42.13;7.25;;;;;;;;;;5065807;28;20032;-89
2022/12/21 02:04:49;;;;;;;74.68;8.00;;;;;;;;;;5050779;28;20036;-89
2022/12/21 02:10:17;;;;;;;19.45;7.05;;;;;;;;;;5065006;28;20047;-89
2022/12/21 02:13:00;;;;;;;16.83;6.05;;;;;;;;;;5079233;28;20032;-89
2022/12/21 02:15:47;;;;;;;13.70;6.10;;;;;;;;;;5075326;28;20047;-89
2022/12/21 02:18:29;;;;;;;15.63;6.90;;;;;;;;;;5065502;28;20135;-88
2022/12/21 02:21:15;;;;;;;15.63;6.40;;;;;;;;;;5076249;28;20218;-89
2022/12/21 02:23:56;;;;;;;15.45;6.07;;;;;;;;;;5061835;28;20041;-89
2022/12/21 02:27:07;;;;;;;12.48;5.30;;;;;;;;;;5076201;28;20036;-89
2022/12/21 02:30:11;;;;;;;17.23;6.78;;;;;;;;;;5080359;28;20044;-89
2022/12/21 02:33:12;;;;;;;12.52;5.10;;;;;;;;;;5062424;28;20037;-89
2022/12/21 02:36:01;;;;;;;13.95;5.45;;;;;;;;;;5038951;28;20639;-90
2022/12/21 02:38:31;;;;;;;14.25;4.97;;;;;;;;;;5050658;28;20414;-89
2022/12/21 02:41:31;;;;;;;11.65;4.70;;;;;;;;;;5067057;28;20076;-90
2022/12/21 02:44:16;;;;;;;11.93;5.03;;;;;;;;;;5078115;28;20094;-90
2022/12/21 02:47:03;;;;;;;7.22;3.15;;;;;;;;;;5049788;28;20037;-89
2022/12/21 02:49:52;;;;;;;10.88;4.13;;;;;;;;;;5066369;28;20119;-90
2022/12/21 02:52:43;;;;;;;17.30;6.20;;;;;;;;;;5064778;28;20424;-89
2022/12/21 02:55:16;;;;;;;10.77;4.55;;;;;;;;;;5068140;28;20033;-89
2022/12/21 02:57:49;;;;;;;47.30;7.93;;;;;;;;;;5063083;28;20418;-89
2022/12/21 03:00:52;;;;;;;28.83;9.82;;;;;;;;;;5075685;28;20145;-89
2022/12/21 03:03:48;;;;;;;19.60;7.97;;;;;;;;;;5051895;28;20574;-89
2022/12/21 03:06:36;;;;;;;19.58;7.85;;;;;;;;;;5064855;28;20040;-88
2022/12/21 03:09:29;;;;;;;19.75;7.93;;;;;;;;;;5081303;28;20055;-89
2022/12/21 03:12:46;;;;;;;22.95;8.50;;;;;;;;;;5083567;28;20033;-89
2022/12/21 03:15:28;;;;;;;25.45;8.95;;;;;;;;;;5080764;28;20522;-89
2022/12/21 03:18:29;;;;;;;20.10;7.45;;;;;;;;;;5065887;28;20438;-89
2022/12/21 03:21:01;;;;;;;21.38;7.32;;;;;;;;;;5084858;28;20035;-89
2022/12/21 03:23:41;;;;;;;20.50;6.88;;;;;;;;;;5081948;28;20040;-90
2022/12/21 03:26:20;;;;;;;21.60;7.25;;;;;;;;;;5050115;28;20083;-90
2022/12/21 03:29:16;;;;;;;18.17;5.93;;;;;;;;;;5064028;28;20040;-89
2022/12/21 03:31:52;;;;;;;15.02;5.28;;;;;;;;;;5049340;28;20044;-90
2022/12/21 03:34:26;;;;;;;14.15;5.43;;;;;;;;;;5075790;28;20047;-89
2022/12/21 03:37:01;;;;;;;11.60;4.57;;;;;;;;;;5081816;28;20064;-89
2022/12/21 03:39:30;;;;;;;14.82;5.18;;;;;;;;;;5069954;28;20060;-90
2022/12/21 03:42:11;;;;;;;16.50;5.68;;;;;;;;;;5064314;28;20409;-90
2022/12/21 03:45:12;;;;;;;16.85;5.85;;;;;;;;;;5084000;28;20051;-89
2022/12/21 03:47:51;;;;;;;18.90;6.47;;;;;;;;;;5059032;28;20029;-89
2022/12/21 03:50:25;;;;;;;12.32;4.90;;;;;;;;;;5060683;28;20044;-90
2022/12/21 03:53:06;;;;;;;17.38;5.80;;;;;;;;;;5070838;28;20072;-89
2022/12/21 03:56:03;;;;;;;16.77;5.70;;;;;;;;;;5076939;28;20421;-90
2022/12/21 03:58:31;;;;;;;9.88;3.95;;;;;;;;;;5079716;28;20033;-90
2022/12/21 04:01:19;;;;;;;13.45;5.18;;;;;;;;;;5065553;28;20069;-89
2022/12/21 04:03:52;;;;;;;14.18;5.38;;;;;;;;;;5063866;28;20041;-90
2022/12/21 04:06:23;;;;;;;14.45;5.97;;;;;;;;;;5081074;28;20036;-89
2022/12/21 04:08:50;;;;;;;14.27;4.78;;;;;;;;;;5067918;28;20033;-90
2022/12/21 04:14:28;;;;;;;13.20;4.93;;;;;;;;;;5083837;28;20062;-89
2022/12/21 04:17:02;;;;;;;18.85;6.53;;;;;;;;;;5067562;28;20049;-90
2022/12/21 04:28:44;;;;;;;15.40;6.50;;;;;;;;;;5086044;28;20158;-89
2022/12/21 04:31:22;;;;;;;19.48;6.72;;;;;;;;;;5069411;28;20128;-89
2022/12/21 04:34:14;;;;;;;17.88;6.13;;;;;;;;;;5069708;28;20037;-89
2022/12/21 04:39:28;;;;;;;25.27;7.10;;;;;;;;;;5048907;28;20053;-89
2022/12/21 04:42:20;;;;;;;18.35;7.18;;;;;;;;;;5068011;28;20033;-89
2022/12/21 04:44:48;;;;;;;19.63;7.28;;;;;;;;;;5085460;28;20502;-90
2022/12/21 04:47:17;;;;;;;20.23;6.90;;;;;;;;;;5068078;28;20041;-90
2022/12/21 04:49:44;;;;;;;20.48;7.82;;;;;;;;;;5049591;28;20036;-89
2022/12/21 04:52:16;;;;;;;19.40;7.45;;;;;;;;;;5042576;28;20545;-89
2022/12/21 04:54:44;;;;;;;22.27;7.40;;;;;;;;;;5066997;28;20138;-90
2022/12/21 04:57:12;;;;;;;26.42;9.73;;;;;;;;;;5081246;28;20033;-89
2022/12/21 04:59:40;;;;;;;21.52;8.15;;;;;;;;;;5034840;28;20036;-90
2022/12/21 05:02:08;;;;;;;30.48;8.77;;;;;;;;;;5083025;28;20059;-89
2022/12/21 05:04:42;;;;;;;23.10;8.05;;;;;;;;;;5065873;28;20442;-90
2022/12/21 05:07:10;;;;;;;21.17;8.35;;;;;;;;;;5086267;28;20025;-90
2022/12/21 05:09:42;;;;;;;17.45;7.10;;;;;;;;;;5037483;28;20042;-90
2022/12/21 05:12:16;;;;;;;20.05;7.70;;;;;;;;;;5053523;28;20139;-89
2022/12/21 05:14:44;;;;;;;17.27;6.88;;;;;;;;;;5069839;28;20040;-90
2022/12/21 05:17:12;;;;;;;25.65;8.68;;;;;;;;;;5068635;28;20367;-89
2022/12/21 05:19:40;;;;;;;23.98;8.57;;;;;;;;;;5066262;28;20055;-90
2022/12/21 05:22:08;;;;;;;20.67;7.35;;;;;;;;;;5054237;28;20041;-89
2022/12/21 05:24:36;;;;;;;18.02;6.63;;;;;;;;;;5051854;28;20709;-89
2022/12/21 05:27:04;;;;;;;15.07;6.45;;;;;;;;;;5070946;28;20047;-90
2022/12/21 05:29:58;;;;;;;15.77;6.00;;;;;;;;;;5083365;28;20067;-90
2022/12/21 05:32:26;;;;;;;17.30;5.95;;;;;;;;;;5067986;28;20032;-90
2022/12/21 05:34:54;;;;;;;13.25;5.63;;;;;;;;;;5086235;28;20483;-90
2022/12/21 05:37:46;;;;;;;16.27;6.30;;;;;;;;;;5086338;28;20044;-89
2022/12/21 05:40:18;;;;;;;21.08;7.95;;;;;;;;;;5070142;28;20534;-90
2022/12/21 05:43:10;;;;;;;16.83;6.35;;;;;;;;;;5072281;28;20132;-90
2022/12/21 05:45:38;;;;;;;17.60;6.03;;;;;;;;;;5047226;28;20052;-90
2022/12/21 05:48:06;;;;;;;16.75;6.78;;;;;;;;;;5067688;28;20099;-89
2022/12/21 05:50:39;;;;;;;18.48;6.07;;;;;;;;;;5068069;28;20078;-90
2022/12/21 05:53:07;;;;;;;15.50;6.45;;;;;;;;;;5065702;28;20052;-90
2022/12/21 05:56:05;;;;;;;12.48;5.30;;;;;;;;;;5073840;28;20406;-89
2022/12/21 05:58:38;;;;;;;14.93;4.65;;;;;;;;;;5068337;28;20036;-89
2022/12/21 06:01:08;;;;;;;11.70;5.32;;;;;;;;;;5079381;28;20067;-90
2022/12/21 06:03:41;;;;;;;10.10;4.68;;;;;;;;;;5031708;28;20041;-89
2022/12/21 06:06:18;;;;;;;12.70;5.15;;;;;;;;;;5070588;28;20040;-89
2022/12/21 06:09:10;;;;;;;10.93;4.38;;;;;;;;;;5045407;28;20020;-90
2022/12/21 06:11:38;;;;;;;10.10;4.32;;;;;;;;;;5070410;28;20483;-90
2022/12/21 06:14:06;;;;;;;10.30;4.22;;;;;;;;;;5063130;28;20055;-90
2022/12/21 06:17:04;;;;;;;15.18;4.90;;;;;;;;;;5068137;28;20032;-89
2022/12/21 06:19:32;;;;;;;15.25;4.97;;;;;;;;;;5063109;28;20067;-90
2022/12/21 06:22:00;;;;;;;11.60;4.72;;;;;;;;;;5068217;28;20450;-89
2022/12/21 06:24:28;;;;;;;14.88;5.13;;;;;;;;;;5046308;28;20057;-89
2022/12/21 06:26:56;;;;;;;12.32;5.28;;;;;;;;;;5064418;28;20042;-88
2022/12/21 06:29:28;;;;;;;16.15;5.70;;;;;;;;;;5079156;28;20054;-92
2022/12/21 06:34:48;;;;;;;15.20;5.60;;;;;;;;;;5080520;28;20032;-90
2022/12/21 06:37:40;;;;;;;15.07;5.60;;;;;;;;;;5076771;28;20040;-89
2022/12/21 06:40:12;;;;;;;12.35;4.72;;;;;;;;;;5075724;28;20494;-89
2022/12/21 06:42:40;;;;;;;14.45;4.85;;;;;;;;;;5054078;28;20048;-90
2022/12/21 06:45:12;;;;;;;12.75;4.85;;;;;;;;;;5054581;28;20054;-88
2022/12/21 06:47:40;;;;;;;14.05;5.50;;;;;;;;;;5041367;28;20032;-88
2022/12/21 06:50:12;;;;;;;16.35;5.03;;;;;;;;;;5076414;28;20130;-88
2022/12/21 06:52:40;;;;;;;16.35;5.93;;;;;;;;;;5058764;28;20052;-88
2022/12/21 06:55:08;;;;;;;16.48;5.57;;;;;;;;;;5055529;28;20070;-88
2022/12/21 06:57:36;;;;;;;12.82;5.10;;;;;;;;;;5055622;28;20616;-88
2022/12/21 07:00:05;;;;;;;13.68;4.57;;;;;;;;;;5075762;28;20036;-88
2022/12/21 07:02:37;;;;;;;20.88;6.72;;;;;;;;;;5061372;28;20117;-88
2022/12/21 07:05:05;;;;;;;16.25;5.75;;;;;;;;;;5072570;28;20521;-88
2022/12/21 07:07:32;;;;;;;19.15;5.97;;;;;;;;;;5080329;28;20032;-88
2022/12/21 07:10:24;;;;;;;20.25;6.57;;;;;;;;;;5063283;28;20504;-88
2022/12/21 07:13:16;;;;;;;25.92;7.47;;;;;;;;;;5042295;28;20048;-88
2022/12/21 07:15:44;;;;;;;23.52;5.97;;;;;;;;;;5047566;28;20036;-88
2022/12/21 07:18:12;;;;;;;20.92;6.68;;;;;;;;;;5064638;28;20445;-88
2022/12/21 07:20:40;;;;;;;25.40;8.35;;;;;;;;;;5062331;28;20140;-88
2022/12/21 07:23:13;;;;;;;28.92;7.97;;;;;;;;;;5075069;28;20045;-88
2022/12/21 07:25:40;;;;;;;20.98;6.70;;;;;;;;;;5078520;28;20371;-88
2022/12/21 07:28:08;;;;;;;21.77;7.25;;;;;;;;;;5079114;28;20033;-88
2022/12/21 07:30:36;;;;;;;22.45;6.82;;;;;;;;;;5077111;28;20090;-89
2022/12/21 07:33:04;;;;;;;20.63;7.10;;;;;;;;;;5070319;28;20040;-88
2022/12/21 07:35:33;;;;;;;16.05;5.78;;;;;;;;;;5064017;28;20040;-88
2022/12/21 07:38:00;;;;;;;15.88;5.80;;;;;;;;;;5066898;28;20051;-88
2022/12/21 07:40:28;;;;;;;17.70;5.70;;;;;;;;;;5063473;28;20051;-88
2022/12/21 07:43:00;;;;;;;18.65;5.70;;;;;;;;;;5063619;28;20118;-88
2022/12/21 07:45:48;;;;;;;18.95;6.50;;;;;;;;;;5063071;28;20174;-88
2022/12/21 07:48:16;;;;;;;18.95;6.53;;;;;;;;;;5066349;28;20559;-88
2022/12/21 07:50:49;;;;;;;18.15;6.90;;;;;;;;;;5066524;28;20044;-86
2022/12/21 07:53:22;;;;;;;27.23;7.63;;;;;;;;;;5061779;28;20040;-86
2022/12/21 07:55:50;;;;;;;28.67;8.20;;;;;;;;;;5067596;28;20055;-87
2022/12/21 07:58:18;;;;;;;29.58;9.02;;;;;;;;;;5062564;28;20036;-86
2022/12/21 08:00:46;;;;;;;36.47;9.18;;;;;;;;;;5061643;28;20390;-86
2022/12/21 08:03:18;;;;;;;24.27;8.75;;;;;;;;;;5085077;28;20048;-86
2022/12/21 08:05:46;;;;;;;29.20;8.48;;;;;;;;;;5054020;28;20047;-86
2022/12/21 08:08:39;;;;;;;35.17;9.18;;;;;;;;;;5040847;28;20033;-86
2022/12/21 08:11:16;;;;;;;33.28;9.90;;;;;;;;;;5081370;28;20050;-86
2022/12/21 08:14:09;;;;;;;26.80;9.43;;;;;;;;;;5085709;28;20482;-86
2022/12/21 08:16:47;;;;;;;29.83;9.15;;;;;;;;;;5085278;28;20033;-86
2022/12/21 08:19:14;;;;;;;33.25;9.50;;;;;;;;;;5081178;28;20047;-86
2022/12/21 08:21:42;;;;;;;42.92;9.38;;;;;;;;;;5064935;28;20031;-87
2022/12/21 08:24:10;;;;;;;34.90;9.98;;;;;;;;;;5048890;28;20059;-87
2022/12/21 08:26:38;;;;;;;34.88;10.07;;;;;;;;;;5067347;28;20455;-86
2022/12/21 08:29:31;;;;;;;36.40;10.50;;;;;;;;;;5077637;28;20051;-87
2022/12/21 08:32:22;;;;;;;35.53;9.90;;;;;;;;;;5063934;28;20040;-87
2022/12/21 08:37:47;;;;;;;30.98;10.05;;;;;;;;;;5060604;28;20131;-86
2022/12/21 08:40:15;;;;;;;28.13;8.70;;;;;;;;;;5066393;28;20052;-87
2022/12/21 08:42:51;;;;;;;38.75;9.43;;;;;;;;;;5082458;28;20040;-87
2022/12/21 08:45:20;;;;;;;36.08;9.95;;;;;;;;;;5084917;28;20520;-87
2022/12/21 08:47:52;;;;;;;33.10;9.70;;;;;;;;;;5077109;28;20093;-86
2022/12/21 08:50:25;;;;;;;33.67;11.02;;;;;;;;;;5083486;28;20040;-87
2022/12/21 08:52:52;;;;;;;33.20;10.13;;;;;;;;;;5060935;28;20514;-87
2022/12/21 08:55:20;;;;;;;40.38;11.32;;;;;;;;;;5078991;28;20117;-87
2022/12/21 08:57:52;;;;;;;36.00;9.85;;;;;;;;;;5063599;28;20033;-87
2022/12/21 09:00:20;;;;;;;41.30;10.43;;;;;;;;;;5065900;28;20044;-87
2022/12/21 09:02:48;;;;;;;37.65;10.32;;;;;;;;;;5059746;28;20040;-87
2022/12/21 09:05:41;;;;;;;32.42;9.48;;;;;;;;;;5080555;28;20085;-87
2022/12/21 09:08:13;;;;;;;33.85;9.85;;;;;;;;;;5066546;28;20119;-87
2022/12/21 09:10:45;;;;;;;83.32;9.43;;;;;;;;;;5085903;28;20044;-87
2022/12/21 09:13:38;;;;;;;41.47;9.98;;;;;;;;;;5080257;28;20170;-87
2022/12/21 09:16:19;;;;;;;30.25;9.30;;;;;;;;;;5076731;28;20036;-87
2022/12/21 09:18:47;;;;;;;38.22;9.52;;;;;;;;;;5078925;28;20036;-87
2022/12/21 09:21:39;;;;;;;29.15;9.23;;;;;;;;;;5072448;28;20055;-87
2022/12/21 09:24:13;;;;;;;43.17;11.45;;;;;;;;;;5057148;28;20418;-86
2022/12/21 09:26:41;;;;;;;33.42;9.25;;;;;;;;;;5053236;28;20139;-87
2022/12/21 09:29:10;;;;;;;30.70;9.57;;;;;;;;;;5083485;28;20036;-87
2022/12/21 09:32:02;;;;;;;33.17;10.05;;;;;;;;;;5060417;28;20036;-87
2022/12/21 09:34:30;;;;;;;35.35;10.38;;;;;;;;;;5040522;28;20049;-87
2022/12/21 09:36:59;;;;;;;35.65;11.30;;;;;;;;;;5081446;28;20060;-86
2022/12/21 09:39:47;;;;;;;37.25;9.85;;;;;;;;;;5064570;28;20052;-87
2022/12/21 09:43:04;;;;;;;33.92;10.55;;;;;;;;;;5068274;28;20123;-87
2022/12/21 09:46:00;;;;;;;35.40;10.55;;;;;;;;;;5070309;28;20497;-86
2022/12/21 09:48:39;;;;;;;36.05;10.50;;;;;;;;;;5041563;28;20114;-87
2022/12/21 09:51:22;;;;;;;40.53;9.48;;;;;;;;;;5051622;28;20043;-86
2022/12/21 09:54:26;;;;;;;37.88;11.18;;;;;;;;;;5080701;28;20143;-87
2022/12/21 09:56:56;;;;;;;40.13;10.95;;;;;;;;;;4999657;28;20058;-87
2022/12/21 09:59:24;;;;;;;36.53;10.80;;;;;;;;;;4999592;28;20050;-87
2022/12/21 10:02:14;;;;;;;33.95;10.68;;;;;;;;;;4999390;28;20053;-87
2022/12/21 10:05:31;;;;;;;37.03;11.25;;;;;;;;;;4997654;28;20081;-87
2022/12/21 10:08:23;;;;;;;34.67;9.35;;;;;;;;;;4973780;28;20045;-87
2022/12/21 10:11:19;;;;;;;36.45;10.57;;;;;;;;;;4983327;28;20045;-86
2022/12/21 10:13:58;;;;;;;37.83;10.07;;;;;;;;;;4923908;29;20119;-87
2022/12/21 10:17:15;;;;;;;38.15;11.73;;;;;;;;;;4906484;29;20075;-87
2022/12/21 10:20:51;;;;;;;33.17;9.38;;;;;;;;;;4847929;29;20069;-87
2022/12/21 10:23:48;;;;;;;34.95;10.15;;;;;;;;;;4845734;29;20091;-87
2022/12/21 10:26:24;;;;;;;34.35;10.15;;;;;;;;;;4843758;29;20548;-86
2022/12/21 10:29:21;;;;;;;29.50;9.70;;;;;;;;;;4846335;29;20226;-87
2022/12/21 10:31:54;;;;;;;38.13;11.88;;;;;;;;;;4857861;29;20154;-87
2022/12/21 10:34:34;;;;;;;40.00;11.68;;;;;;;;;;4901587;29;20495;-86
2022/12/21 10:37:28;;;;;;;35.83;11.85;;;;;;;;;;4891049;29;20056;-87
2022/12/21 10:39:56;;;;;;;50.05;12.75;;;;;;;;;;4902576;29;20082;-87
2022/12/21 10:43:15;;;;;;;40.00;11.30;;;;;;;;;;4902830;29;20047;-87
2022/12/21 10:46:07;;;;;;;38.95;11.18;;;;;;;;;;4877387;29;20040;-87
2022/12/21 10:49:10;;;;;;;33.97;10.98;;;;;;;;;;4889188;29;20153;-87
2022/12/21 10:52:50;;;;;;;43.92;11.30;;;;;;;;;;4970698;28;20038;-87
2022/12/21 10:55:26;;;;;;;42.20;11.40;;;;;;;;;;5015583;28;20072;-86
2022/12/21 10:58:02;;;;;;;40.97;11.75;;;;;;;;;;5071241;28;20505;-87
2022/12/21 11:00:36;;;;;;;43.55;10.98;;;;;;;;;;5063586;28;20040;-86
2022/12/21 11:03:30;;;;;;;30.38;8.80;;;;;;;;;;5075699;28;20036;-86
2022/12/21 11:06:22;;;;;;;41.35;11.90;;;;;;;;;;5066582;28;20097;-87
2022/12/21 11:08:55;;;;;;;46.88;11.85;;;;;;;;;;5062764;28;20385;-87
2022/12/21 11:11:37;;;;;;;45.80;12.43;;;;;;;;;;5076903;28;20118;-89
2022/12/21 11:14:37;;;;;;;45.28;12.75;;;;;;;;;;5077117;28;20040;-86
2022/12/21 11:17:04;;;;;;;49.72;12.65;;;;;;;;;;5081185;28;20099;-86
2022/12/21 11:19:34;;;;;;;40.45;11.88;;;;;;;;;;5083666;28;20036;-87
2022/12/21 11:22:06;;;;;;;43.25;12.90;;;;;;;;;;5055004;28;20844;-87
2022/12/21 11:24:57;;;;;;;33.42;12.43;;;;;;;;;;5071301;28;20679;-87
2022/12/21 11:27:30;;;;;;;38.28;12.10;;;;;;;;;;5085129;28;20032;-87
2022/12/21 11:30:08;;;;;;;34.60;10.85;;;;;;;;;;5055592;28;20130;-87
2022/12/21 11:32:48;;;;;;;40.97;12.20;;;;;;;;;;5084326;28;20089;-87
2022/12/21 11:35:28;;;;;;;40.88;11.57;;;;;;;;;;5072846;28;20040;-87
2022/12/21 11:38:11;;;;;;;31.58;11.60;;;;;;;;;;5085042;28;20036;-87
2022/12/21 11:41:20;;;;;;;38.53;11.50;;;;;;;;;;5081775;28;20089;-87
2022/12/21 11:43:50;;;;;;;36.83;11.65;;;;;;;;;;5072240;28;20064;-87
2022/12/21 11:46:45;;;;;;;30.88;10.80;;;;;;;;;;5085903;28;20431;-87
2022/12/21 11:49:36;;;;;;;35.42;12.15;;;;;;;;;;5067500;28;20043;-86
2022/12/21 11:52:55;;;;;;;34.28;10.75;;;;;;;;;;5075539;28;20052;-87
2022/12/21 11:55:41;;;;;;;34.85;11.90;;;;;;;;;;5068757;28;20036;-87
2022/12/21 11:58:14;;;;;;;35.80;11.52;;;;;;;;;;5071629;28;20093;-88
2022/12/21 12:01:04;;;;;;;31.40;11.40;;;;;;;;;;5087564;28;20036;-87
2022/12/21 12:03:47;;;;;;;33.10;10.77;;;;;;;;;;5057956;28;20066;-87
2022/12/21 12:06:37;;;;;;;40.70;11.65;;;;;;;;;;5082400;28;20253;-87
2022/12/21 12:09:12;;;;;;;35.03;10.60;;;;;;;;;;5086057;28;20059;-87
2022/12/21 12:12:07;;;;;;;33.97;11.20;;;;;;;;;;5086784;28;20045;-87
2022/12/21 12:14:49;;;;;;;30.70;11.10;;;;;;;;;;5084917;28;20052;-87
2022/12/21 12:17:35;;;;;;;32.63;10.82;;;;;;;;;;5084623;28;20135;-88
2022/12/21 12:20:24;;;;;;;34.78;11.25;;;;;;;;;;5066286;28;20041;-87
2022/12/21 12:23:01;;;;;;;36.40;11.60;;;;;;;;;;5064219;28;20040;-87
2022/12/21 12:25:39;;;;;;;37.55;11.73;;;;;;;;;;5081931;28;20513;-87
2022/12/21 12:28:49;;;;;;;39.00;11.60;;;;;;;;;;5062936;28;20028;-87
2022/12/21 12:31:48;;;;;;;40.10;11.23;;;;;;;;;;5029086;28;20068;-87
2022/12/21 12:34:58;;;;;;;28.20;10.40;;;;;;;;;;5077375;28;20043;-87
2022/12/21 12:37:45;;;;;;;32.78;11.27;;;;;;;;;;5083172;28;20040;-87
2022/12/21 12:40:56;;;;;;;33.40;11.75;;;;;;;;;;5083680;28;20039;-87
2022/12/21 12:43:47;;;;;;;30.00;11.07;;;;;;;;;;5078610;28;20044;-87
2022/12/21 12:46:39;;;;;;;33.92;10.63;;;;;;;;;;5070723;28;20036;-88
2022/12/21 12:49:30;;;;;;;33.83;10.82;;;;;;;;;;5063574;28;20071;-87
2022/12/21 12:52:10;;;;;;;32.00;11.07;;;;;;;;;;5066524;28;20051;-87
2022/12/21 12:55:01;;;;;;;28.45;9.50;;;;;;;;;;5082001;28;20045;-87
2022/12/21 12:57:41;;;;;;;31.90;9.88;;;;;;;;;;5078093;28;20039;-87
2022/12/21 13:00:12;;;;;;;29.15;9.85;;;;;;;;;;5079406;28;20074;-87
2022/12/21 13:03:09;;;;;;;40.35;11.57;;;;;;;;;;5078645;28;20040;-87
2022/12/21 13:06:04;;;;;;;28.50;11.50;;;;;;;;;;5074234;28;20499;-87
2022/12/21 13:09:06;;;;;;;29.05;10.77;;;;;;;;;;5067971;28;20105;-87
2022/12/21 13:15:03;;;;;;;30.30;10.55;;;;;;;;;;5000781;28;20080;-87
2022/12/21 13:17:43;;;;;;;35.67;9.82;;;;;;;;;;4994185;28;20104;-87
2022/12/21 13:20:16;;;;;;;33.65;11.00;;;;;;;;;;4989444;28;20043;-87
2022/12/21 13:22:55;;;;;;;33.00;11.10;;;;;;;;;;4984354;28;20054;-87
2022/12/21 13:25:35;;;;;;;30.05;10.80;;;;;;;;;;4978448;28;20160;-87
2022/12/21 13:28:06;;;;;;;29.38;9.57;;;;;;;;;;4980848;28;20144;-87
2022/12/21 13:31:03;;;;;;;27.67;10.68;;;;;;;;;;4994306;28;20068;-87
2022/12/21 13:33:34;;;;;;;32.28;10.20;;;;;;;;;;4997201;28;20097;-87
2022/12/21 13:36:11;;;;;;;32.20;10.55;;;;;;;;;;4983220;28;20098;-86
2022/12/21 13:38:53;;;;;;;34.92;10.48;;;;;;;;;;4983211;28;20038;-87
2022/12/21 13:41:35;;;;;;;29.20;10.13;;;;;;;;;;4977775;28;20136;-87
2022/12/21 13:44:27;;;;;;;29.02;10.18;;;;;;;;;;4979365;28;20050;-86
2022/12/21 13:47:03;;;;;;;31.63;9.95;;;;;;;;;;4996192;28;20053;-87
2022/12/21 13:49:49;;;;;;;29.98;10.27;;;;;;;;;;5071464;28;20035;-86
2022/12/21 13:52:26;;;;;;;29.80;10.10;;;;;;;;;;5079142;28;20094;-87
2022/12/21 13:55:12;;;;;;;27.55;9.27;;;;;;;;;;5083791;28;20060;-87
2022/12/21 13:58:07;;;;;;;26.98;8.85;;;;;;;;;;5076951;28;20486;-87
2022/12/21 14:01:14;;;;;;;32.03;9.85;;;;;;;;;;5073251;28;20110;-87
2022/12/21 14:04:02;;;;;;;29.23;9.27;;;;;;;;;;5065059;28;20040;-87
2022/12/21 14:07:01;;;;;;;28.00;9.68;;;;;;;;;;5077149;28;20032;-87
2022/12/21 14:09:46;;;;;;;35.00;10.18;;;;;;;;;;5061978;28;20127;-88
2022/12/21 14:13:02;;;;;;;28.35;9.13;;;;;;;;;;5062211;28;20048;-88
2022/12/21 14:15:55;;;;;;;29.63;9.85;;;;;;;;;;5032434;28;20140;-87
2022/12/21 14:18:37;;;;;;;29.25;8.45;;;;;;;;;;5066758;28;20042;-85
2022/12/21 14:21:29;;;;;;;30.27;9.32;;;;;;;;;;5062217;28;20075;-89
2022/12/21 14:24:26;;;;;;;35.72;10.45;;;;;;;;;;5059794;28;20050;-88
2022/12/21 14:27:15;;;;;;;31.33;8.90;;;;;;;;;;5058867;28;20060;-87
2022/12/21 14:29:43;;;;;;;36.97;9.43;;;;;;;;;;5061758;28;20063;-86
2022/12/21 14:32:10;;;;;;;39.03;10.35;;;;;;;;;;5059599;28;20047;-87
2022/12/21 14:35:02;;;;;;;35.30;10.05;;;;;;;;;;5059165;28;20517;-87
2022/12/21 14:37:31;;;;;;;27.38;7.63;;;;;;;;;;5065113;28;20028;-87
2022/12/21 14:40:13;;;;;;;30.20;8.57;;;;;;;;;;5070355;28;20033;-86
2022/12/21 14:42:52;;;;;;;28.05;9.00;;;;;;;;;;5063555;28;20093;-87
2022/12/21 14:45:24;;;;;;;32.72;9.75;;;;;;;;;;5080002;28;20032;-86
2022/12/21 14:47:52;;;;;;;25.67;9.05;;;;;;;;;;5064806;28;20044;-87
2022/12/21 14:50:20;;;;;;;32.10;10.55;;;;;;;;;;5082952;28;20066;-87
2022/12/21 14:52:58;;;;;;;34.17;11.68;;;;;;;;;;5052855;28;20044;-87
2022/12/21 14:55:35;;;;;;;40.25;11.45;;;;;;;;;;5069963;28;20037;-87
2022/12/21 14:58:21;;;;;;;41.78;13.13;;;;;;;;;;5069873;28;20071;-88
2022/12/21 15:01:11;;;;;;;44.13;12.55;;;;;;;;;;5079700;28;20453;-87
2022/12/21 15:03:42;;;;;;;36.05;12.20;;;;;;;;;;5070596;28;20545;-85
2022/12/21 15:06:17;;;;;;;36.33;12.23;;;;;;;;;;5075421;28;20036;-85
2022/12/21 15:09:20;;;;;;;38.22;11.73;;;;;;;;;;5080168;28;20047;-85
2022/12/21 15:11:56;;;;;;;38.10;10.63;;;;;;;;;;5076088;28;20505;-85
2022/12/21 15:14:43;;;;;;;38.33;10.77;;;;;;;;;;5061382;28;20064;-85
2022/12/21 15:17:19;;;;;;;36.75;10.73;;;;;;;;;;5074073;28;20055;-86
2022/12/21 15:20:44;;;;;;;32.53;10.88;;;;;;;;;;5074436;28;20116;-86
2022/12/21 15:23:34;;;;;;;40.30;12.23;;;;;;;;;;5058906;28;20068;-85
2022/12/21 15:26:08;;;;;;;32.97;10.32;;;;;;;;;;5075124;28;20120;-85
2022/12/21 15:28:41;;;;;;;33.38;11.45;;;;;;;;;;5055612;28;20055;-85
2022/12/21 15:31:21;;;;;;;34.10;11.50;;;;;;;;;;5077438;28;20044;-85
2022/12/21 15:33:51;;;;;;;30.35;11.60;;;;;;;;;;5078087;28;20086;-85
2022/12/21 15:36:34;;;;;;;33.00;11.63;;;;;;;;;;5059495;28;20472;-85
2022/12/21 15:39:12;;;;;;;36.78;11.63;;;;;;;;;;5077370;28;20482;-85
2022/12/21 15:41:52;;;;;;;30.65;11.65;;;;;;;;;;5063477;28;20485;-85
2022/12/21 15:44:30;;;;;;;34.05;10.50;;;;;;;;;;5075010;28;20048;-85
2022/12/21 15:47:30;;;;;;;36.40;11.52;;;;;;;;;;5060810;28;20032;-85
2022/12/21 15:50:07;;;;;;;32.83;10.75;;;;;;;;;;5073657;28;20028;-85
2022/12/21 15:52:41;;;;;;;34.42;10.95;;;;;;;;;;5079078;28;20052;-84
2022/12/21 15:55:36;;;;;;;35.90;12.40;;;;;;;;;;5059903;28;20478;-85
2022/12/21 16:01:28;;;;;;;33.78;11.20;;;;;;;;;;5079523;28;20079;-85
2022/12/21 16:04:23;;;;;;;34.50;10.93;;;;;;;;;;5077687;28;20044;-85
2022/12/21 16:06:54;;;;;;;39.03;11.50;;;;;;;;;;5079620;28;20490;-85
2022/12/21 16:09:28;;;;;;;30.02;10.88;;;;;;;;;;5083339;28;20047;-84
2022/12/21 16:11:58;;;;;;;36.17;11.60;;;;;;;;;;5080981;28;20109;-84